sensor_id;sensor_type;location;lat;lon;timestamp;P1;durP1;ratioP1;P2;durP2;ratioP2
4980;SDS011;2507;50.392;7.482;2022-11-20T00:00:46;23.43;;;17.67;;
4980;SDS011;2507;50.392;7.482;2022-11-20T00:03:12;21.80;;;16.57;;
4980;SDS011;2507;50.392;7.482;2022-11-20T00:05:37;22.33;;;17.37;;
4980;SDS011;2507;50.392;7.482;2022-11-20T00:08:03;20.10;;;17.13;;
4980;SDS011;2507;50.392;7.482;2022-11-20T00:10:28;19.70;;;16.13;;
4980;SDS011;2507;50.392;7.482;2022-11-20T00:12:54;22.50;;;17.80;;
4980;SDS011;2507;50.392;7.482;2022-11-20T00:15:19;24.13;;;18.10;;
4980;SDS011;2507;50.392;7.482;2022-11-20T00:17:44;23.77;;;18.47;;
4980;SDS011;2507;50.392;7.482;2022-11-20T00:20:10;24.43;;;18.77;;
4980;SDS011;2507;50.392;7.482;2022-11-20T00:22:36;23.97;;;17.70;;
4980;SDS011;2507;50.392;7.482;2022-11-20T00:25:01;24.87;;;18.47;;
4980;SDS011;2507;50.392;7.482;2022-11-20T00:27:26;22.80;;;17.33;;
4980;SDS011;2507;50.392;7.482;2022-11-20T00:29:52;24.77;;;18.13;;
4980;SDS011;2507;50.392;7.482;2022-11-20T00:32:17;26.30;;;19.10;;
4980;SDS011;2507;50.392;7.482;2022-11-20T00:34:42;23.50;;;16.60;;
4980;SDS011;2507;50.392;7.482;2022-11-20T00:37:07;24.90;;;18.50;;
4980;SDS011;2507;50.392;7.482;2022-11-20T00:39:33;24.40;;;17.33;;
4980;SDS011;2507;50.392;7.482;2022-11-20T00:41:58;22.20;;;17.77;;
4980;SDS011;2507;50.392;7.482;2022-11-20T00:44:23;24.07;;;18.33;;
4980;SDS011;2507;50.392;7.482;2022-11-20T00:46:48;25.87;;;19.43;;
4980;SDS011;2507;50.392;7.482;2022-11-20T00:49:14;23.97;;;19.40;;
4980;SDS011;2507;50.392;7.482;2022-11-20T00:51:39;24.07;;;17.60;;
4980;SDS011;2507;50.392;7.482;2022-11-20T00:54:04;24.67;;;18.70;;
4980;SDS011;2507;50.392;7.482;2022-11-20T00:56:29;23.60;;;17.87;;
4980;SDS011;2507;50.392;7.482;2022-11-20T00:58:55;22.53;;;17.87;;
4980;SDS011;2507;50.392;7.482;2022-11-20T01:01:24;22.87;;;17.40;;
4980;SDS011;2507;50.392;7.482;2022-11-20T01:03:51;23.30;;;17.40;;
4980;SDS011;2507;50.392;7.482;2022-11-20T01:06:19;25.60;;;19.73;;
4980;SDS011;2507;50.392;7.482;2022-11-20T01:08:46;24.60;;;17.87;;
4980;SDS011;2507;50.392;7.482;2022-11-20T01:11:20;26.17;;;18.80;;
4980;SDS011;2507;50.392;7.482;2022-11-20T01:13:48;24.53;;;18.70;;
4980;SDS011;2507;50.392;7.482;2022-11-20T01:16:17;23.33;;;17.37;;
4980;SDS011;2507;50.392;7.482;2022-11-20T01:18:43;25.23;;;19.40;;
4980;SDS011;2507;50.392;7.482;2022-11-20T01:21:12;25.30;;;18.57;;
4980;SDS011;2507;50.392;7.482;2022-11-20T01:23:39;27.50;;;20.50;;
4980;SDS011;2507;50.392;7.482;2022-11-20T01:26:07;25.00;;;19.27;;
4980;SDS011;2507;50.392;7.482;2022-11-20T01:28:34;30.40;;;21.60;;
4980;SDS011;2507;50.392;7.482;2022-11-20T01:31:00;26.13;;;19.83;;
4980;SDS011;2507;50.392;7.482;2022-11-20T01:33:26;29.17;;;20.57;;
4980;SDS011;2507;50.392;7.482;2022-11-20T01:35:52;25.97;;;19.47;;
4980;SDS011;2507;50.392;7.482;2022-11-20T01:38:18;28.20;;;18.50;;
4980;SDS011;2507;50.392;7.482;2022-11-20T01:40:45;24.33;;;18.13;;
4980;SDS011;2507;50.392;7.482;2022-11-20T01:43:19;25.50;;;18.17;;
4980;SDS011;2507;50.392;7.482;2022-11-20T01:48:37;25.40;;;19.37;;
4980;SDS011;2507;50.392;7.482;2022-11-20T01:51:12;22.60;;;17.30;;
4980;SDS011;2507;50.392;7.482;2022-11-20T01:53:42;21.77;;;17.23;;
4980;SDS011;2507;50.392;7.482;2022-11-20T01:56:08;25.60;;;18.30;;
4980;SDS011;2507;50.392;7.482;2022-11-20T01:58:37;28.47;;;20.07;;
4980;SDS011;2507;50.392;7.482;2022-11-20T02:01:07;25.87;;;19.17;;
4980;SDS011;2507;50.392;7.482;2022-11-20T02:03:33;23.77;;;18.43;;
4980;SDS011;2507;50.392;7.482;2022-11-20T02:08:43;23.27;;;18.13;;
4980;SDS011;2507;50.392;7.482;2022-11-20T02:11:08;25.30;;;19.60;;
4980;SDS011;2507;50.392;7.482;2022-11-20T02:13:33;25.70;;;18.47;;
4980;SDS011;2507;50.392;7.482;2022-11-20T02:16:12;25.10;;;19.20;;
4980;SDS011;2507;50.392;7.482;2022-11-20T02:18:40;26.27;;;19.67;;
4980;SDS011;2507;50.392;7.482;2022-11-20T02:21:11;27.10;;;18.70;;
4980;SDS011;2507;50.392;7.482;2022-11-20T02:24:00;29.80;;;19.77;;
4980;SDS011;2507;50.392;7.482;2022-11-20T02:26:33;26.70;;;19.10;;
4980;SDS011;2507;50.392;7.482;2022-11-20T02:29:02;27.87;;;20.77;;
4980;SDS011;2507;50.392;7.482;2022-11-20T02:31:28;25.50;;;19.67;;
4980;SDS011;2507;50.392;7.482;2022-11-20T02:33:55;26.80;;;19.90;;
4980;SDS011;2507;50.392;7.482;2022-11-20T02:36:21;30.90;;;20.80;;
4980;SDS011;2507;50.392;7.482;2022-11-20T02:38:49;24.70;;;18.47;;
4980;SDS011;2507;50.392;7.482;2022-11-20T02:41:14;30.40;;;20.27;;
4980;SDS011;2507;50.392;7.482;2022-11-20T02:43:40;31.77;;;21.33;;
4980;SDS011;2507;50.392;7.482;2022-11-20T02:46:06;26.80;;;19.47;;
4980;SDS011;2507;50.392;7.482;2022-11-20T02:48:32;27.77;;;20.00;;
4980;SDS011;2507;50.392;7.482;2022-11-20T02:50:57;28.10;;;19.97;;
4980;SDS011;2507;50.392;7.482;2022-11-20T02:53:22;27.20;;;18.97;;
4980;SDS011;2507;50.392;7.482;2022-11-20T02:55:48;28.63;;;19.40;;
4980;SDS011;2507;50.392;7.482;2022-11-20T02:58:13;28.13;;;20.07;;
4980;SDS011;2507;50.392;7.482;2022-11-20T03:00:38;29.27;;;20.40;;
4980;SDS011;2507;50.392;7.482;2022-11-20T03:03:04;27.77;;;20.60;;
4980;SDS011;2507;50.392;7.482;2022-11-20T03:05:29;28.10;;;21.07;;
4980;SDS011;2507;50.392;7.482;2022-11-20T03:07:54;27.13;;;19.20;;
4980;SDS011;2507;50.392;7.482;2022-11-20T03:10:19;27.63;;;19.50;;
4980;SDS011;2507;50.392;7.482;2022-11-20T03:12:45;29.27;;;20.07;;
4980;SDS011;2507;50.392;7.482;2022-11-20T03:15:10;28.57;;;21.10;;
4980;SDS011;2507;50.392;7.482;2022-11-20T03:17:36;29.30;;;20.03;;
4980;SDS011;2507;50.392;7.482;2022-11-20T03:20:01;26.17;;;18.30;;
4980;SDS011;2507;50.392;7.482;2022-11-20T03:22:28;27.70;;;20.90;;
4980;SDS011;2507;50.392;7.482;2022-11-20T03:24:54;27.90;;;19.20;;
4980;SDS011;2507;50.392;7.482;2022-11-20T03:27:20;27.43;;;18.20;;
4980;SDS011;2507;50.392;7.482;2022-11-20T03:29:45;29.60;;;19.40;;
4980;SDS011;2507;50.392;7.482;2022-11-20T03:32:10;28.70;;;20.77;;
4980;SDS011;2507;50.392;7.482;2022-11-20T03:34:36;26.13;;;18.80;;
4980;SDS011;2507;50.392;7.482;2022-11-20T03:37:01;28.47;;;19.77;;
4980;SDS011;2507;50.392;7.482;2022-11-20T03:39:26;27.40;;;20.87;;
4980;SDS011;2507;50.392;7.482;2022-11-20T03:41:51;31.40;;;19.83;;
4980;SDS011;2507;50.392;7.482;2022-11-20T03:44:17;30.20;;;21.10;;
4980;SDS011;2507;50.392;7.482;2022-11-20T03:46:42;28.33;;;19.33;;
4980;SDS011;2507;50.392;7.482;2022-11-20T03:49:07;28.03;;;20.20;;
4980;SDS011;2507;50.392;7.482;2022-11-20T03:51:33;26.77;;;19.47;;
4980;SDS011;2507;50.392;7.482;2022-11-20T03:54:01;27.10;;;19.20;;
4980;SDS011;2507;50.392;7.482;2022-11-20T03:56:30;27.43;;;19.57;;
4980;SDS011;2507;50.392;7.482;2022-11-20T03:58:57;26.27;;;19.37;;
4980;SDS011;2507;50.392;7.482;2022-11-20T04:01:24;30.47;;;20.30;;
4980;SDS011;2507;50.392;7.482;2022-11-20T04:03:51;27.00;;;19.10;;
4980;SDS011;2507;50.392;7.482;2022-11-20T04:06:36;27.27;;;19.80;;
4980;SDS011;2507;50.392;7.482;2022-11-20T04:09:02;29.70;;;20.40;;
4980;SDS011;2507;50.392;7.482;2022-11-20T04:11:29;30.30;;;21.27;;
4980;SDS011;2507;50.392;7.482;2022-11-20T04:14:00;32.33;;;20.70;;
4980;SDS011;2507;50.392;7.482;2022-11-20T04:16:30;33.90;;;21.30;;
4980;SDS011;2507;50.392;7.482;2022-11-20T04:19:00;29.40;;;19.53;;
4980;SDS011;2507;50.392;7.482;2022-11-20T04:21:26;31.20;;;22.07;;
4980;SDS011;2507;50.392;7.482;2022-11-20T04:23:52;31.07;;;20.00;;
4980;SDS011;2507;50.392;7.482;2022-11-20T04:26:18;31.57;;;19.50;;
4980;SDS011;2507;50.392;7.482;2022-11-20T04:28:44;28.73;;;20.23;;
4980;SDS011;2507;50.392;7.482;2022-11-20T04:31:12;31.27;;;20.53;;
4980;SDS011;2507;50.392;7.482;2022-11-20T04:33:42;31.00;;;20.77;;
4980;SDS011;2507;50.392;7.482;2022-11-20T04:36:10;28.20;;;19.80;;
4980;SDS011;2507;50.392;7.482;2022-11-20T04:38:38;27.83;;;19.67;;
4980;SDS011;2507;50.392;7.482;2022-11-20T04:41:05;28.73;;;19.57;;
4980;SDS011;2507;50.392;7.482;2022-11-20T04:43:32;27.00;;;19.23;;
4980;SDS011;2507;50.392;7.482;2022-11-20T04:45:58;29.87;;;19.80;;
4980;SDS011;2507;50.392;7.482;2022-11-20T04:48:24;26.87;;;19.17;;
4980;SDS011;2507;50.392;7.482;2022-11-20T04:50:50;27.57;;;19.33;;
4980;SDS011;2507;50.392;7.482;2022-11-20T04:53:16;30.63;;;19.27;;
4980;SDS011;2507;50.392;7.482;2022-11-20T04:55:41;36.90;;;20.80;;
4980;SDS011;2507;50.392;7.482;2022-11-20T04:58:07;30.60;;;21.20;;
4980;SDS011;2507;50.392;7.482;2022-11-20T05:00:33;29.90;;;20.77;;
4980;SDS011;2507;50.392;7.482;2022-11-20T05:02:58;29.40;;;19.53;;
4980;SDS011;2507;50.392;7.482;2022-11-20T05:05:23;30.03;;;20.17;;
4980;SDS011;2507;50.392;7.482;2022-11-20T05:07:49;28.53;;;19.33;;
4980;SDS011;2507;50.392;7.482;2022-11-20T05:10:14;32.20;;;20.93;;
4980;SDS011;2507;50.392;7.482;2022-11-20T05:12:40;29.40;;;19.70;;
4980;SDS011;2507;50.392;7.482;2022-11-20T05:15:05;30.07;;;19.30;;
4980;SDS011;2507;50.392;7.482;2022-11-20T05:17:31;31.63;;;20.37;;
4980;SDS011;2507;50.392;7.482;2022-11-20T05:19:56;28.27;;;19.97;;
4980;SDS011;2507;50.392;7.482;2022-11-20T05:22:22;27.90;;;20.10;;
4980;SDS011;2507;50.392;7.482;2022-11-20T05:24:47;32.47;;;21.67;;
4980;SDS011;2507;50.392;7.482;2022-11-20T05:27:13;33.00;;;21.00;;
4980;SDS011;2507;50.392;7.482;2022-11-20T05:29:38;29.77;;;20.13;;
4980;SDS011;2507;50.392;7.482;2022-11-20T05:32:03;28.30;;;19.40;;
4980;SDS011;2507;50.392;7.482;2022-11-20T05:34:30;30.80;;;21.27;;
4980;SDS011;2507;50.392;7.482;2022-11-20T05:36:56;29.53;;;20.63;;
4980;SDS011;2507;50.392;7.482;2022-11-20T05:39:21;29.30;;;20.87;;
4980;SDS011;2507;50.392;7.482;2022-11-20T05:41:46;32.50;;;21.70;;
4980;SDS011;2507;50.392;7.482;2022-11-20T05:44:32;31.90;;;21.10;;
4980;SDS011;2507;50.392;7.482;2022-11-20T05:46:57;33.00;;;22.10;;
4980;SDS011;2507;50.392;7.482;2022-11-20T05:49:22;30.43;;;21.03;;
4980;SDS011;2507;50.392;7.482;2022-11-20T05:51:47;34.70;;;21.33;;
4980;SDS011;2507;50.392;7.482;2022-11-20T05:54:13;34.10;;;22.47;;
4980;SDS011;2507;50.392;7.482;2022-11-20T05:56:38;33.50;;;21.57;;
4980;SDS011;2507;50.392;7.482;2022-11-20T05:59:03;34.27;;;21.70;;
4980;SDS011;2507;50.392;7.482;2022-11-20T06:01:28;31.97;;;21.47;;
4980;SDS011;2507;50.392;7.482;2022-11-20T06:03:54;32.07;;;20.53;;
4980;SDS011;2507;50.392;7.482;2022-11-20T06:06:20;33.50;;;22.10;;
4980;SDS011;2507;50.392;7.482;2022-11-20T06:08:46;29.67;;;21.00;;
4980;SDS011;2507;50.392;7.482;2022-11-20T06:11:12;29.60;;;20.40;;
4980;SDS011;2507;50.392;7.482;2022-11-20T06:13:39;29.67;;;20.47;;
4980;SDS011;2507;50.392;7.482;2022-11-20T06:16:04;32.03;;;19.97;;
4980;SDS011;2507;50.392;7.482;2022-11-20T06:18:30;30.30;;;20.20;;
4980;SDS011;2507;50.392;7.482;2022-11-20T06:23:41;32.97;;;20.97;;
4980;SDS011;2507;50.392;7.482;2022-11-20T06:26:08;29.13;;;21.90;;
4980;SDS011;2507;50.392;7.482;2022-11-20T06:28:35;27.47;;;18.03;;
4980;SDS011;2507;50.392;7.482;2022-11-20T06:31:00;34.60;;;21.17;;
4980;SDS011;2507;50.392;7.482;2022-11-20T06:33:26;31.00;;;21.17;;
4980;SDS011;2507;50.392;7.482;2022-11-20T06:35:51;30.97;;;21.50;;
4980;SDS011;2507;50.392;7.482;2022-11-20T06:38:18;27.33;;;20.43;;
4980;SDS011;2507;50.392;7.482;2022-11-20T06:40:43;28.73;;;19.80;;
4980;SDS011;2507;50.392;7.482;2022-11-20T06:43:09;28.60;;;19.87;;
4980;SDS011;2507;50.392;7.482;2022-11-20T06:45:35;31.40;;;19.97;;
4980;SDS011;2507;50.392;7.482;2022-11-20T06:48:01;28.47;;;20.13;;
4980;SDS011;2507;50.392;7.482;2022-11-20T06:50:26;30.07;;;20.10;;
4980;SDS011;2507;50.392;7.482;2022-11-20T06:52:51;27.80;;;19.57;;
4980;SDS011;2507;50.392;7.482;2022-11-20T06:55:17;29.10;;;20.93;;
4980;SDS011;2507;50.392;7.482;2022-11-20T06:57:42;33.57;;;21.50;;
4980;SDS011;2507;50.392;7.482;2022-11-20T07:00:07;28.87;;;19.40;;
4980;SDS011;2507;50.392;7.482;2022-11-20T07:02:33;31.13;;;22.03;;
4980;SDS011;2507;50.392;7.482;2022-11-20T07:04:58;30.00;;;20.30;;
4980;SDS011;2507;50.392;7.482;2022-11-20T07:07:23;31.47;;;20.90;;
4980;SDS011;2507;50.392;7.482;2022-11-20T07:09:49;34.67;;;21.87;;
4980;SDS011;2507;50.392;7.482;2022-11-20T07:12:14;29.70;;;20.00;;
4980;SDS011;2507;50.392;7.482;2022-11-20T07:14:39;32.07;;;20.77;;
4980;SDS011;2507;50.392;7.482;2022-11-20T07:17:04;28.47;;;18.70;;
4980;SDS011;2507;50.392;7.482;2022-11-20T07:19:30;32.13;;;20.80;;
4980;SDS011;2507;50.392;7.482;2022-11-20T07:21:55;34.83;;;22.50;;
4980;SDS011;2507;50.392;7.482;2022-11-20T07:24:20;31.50;;;21.97;;
4980;SDS011;2507;50.392;7.482;2022-11-20T07:26:46;29.97;;;21.10;;
4980;SDS011;2507;50.392;7.482;2022-11-20T07:29:14;30.50;;;21.20;;
4980;SDS011;2507;50.392;7.482;2022-11-20T07:31:39;28.93;;;21.17;;
4980;SDS011;2507;50.392;7.482;2022-11-20T07:34:05;33.00;;;23.10;;
4980;SDS011;2507;50.392;7.482;2022-11-20T07:36:30;29.27;;;20.37;;
4980;SDS011;2507;50.392;7.482;2022-11-20T07:38:55;32.50;;;21.70;;
4980;SDS011;2507;50.392;7.482;2022-11-20T07:41:20;33.80;;;22.27;;
4980;SDS011;2507;50.392;7.482;2022-11-20T07:43:46;32.80;;;22.27;;
4980;SDS011;2507;50.392;7.482;2022-11-20T07:46:11;30.70;;;20.60;;
4980;SDS011;2507;50.392;7.482;2022-11-20T07:48:36;34.27;;;22.67;;
4980;SDS011;2507;50.392;7.482;2022-11-20T07:51:01;34.30;;;22.97;;
4980;SDS011;2507;50.392;7.482;2022-11-20T07:53:27;34.27;;;21.57;;
4980;SDS011;2507;50.392;7.482;2022-11-20T07:55:52;32.13;;;21.87;;
4980;SDS011;2507;50.392;7.482;2022-11-20T07:58:18;29.67;;;21.03;;
4980;SDS011;2507;50.392;7.482;2022-11-20T08:00:44;33.13;;;22.63;;
4980;SDS011;2507;50.392;7.482;2022-11-20T08:03:10;35.03;;;22.07;;
4980;SDS011;2507;50.392;7.482;2022-11-20T08:05:35;34.87;;;23.50;;
4980;SDS011;2507;50.392;7.482;2022-11-20T08:08:02;41.00;;;25.47;;
4980;SDS011;2507;50.392;7.482;2022-11-20T08:10:27;37.80;;;23.60;;
4980;SDS011;2507;50.392;7.482;2022-11-20T08:12:52;39.27;;;25.77;;
4980;SDS011;2507;50.392;7.482;2022-11-20T08:15:37;37.30;;;24.13;;
4980;SDS011;2507;50.392;7.482;2022-11-20T08:18:08;37.20;;;24.13;;
4980;SDS011;2507;50.392;7.482;2022-11-20T08:20:36;34.20;;;22.60;;
4980;SDS011;2507;50.392;7.482;2022-11-20T08:23:02;36.30;;;23.77;;
4980;SDS011;2507;50.392;7.482;2022-11-20T08:25:30;35.87;;;22.53;;
4980;SDS011;2507;50.392;7.482;2022-11-20T08:27:57;36.60;;;25.40;;
4980;SDS011;2507;50.392;7.482;2022-11-20T08:30:23;35.15;;;23.20;;
4980;SDS011;2507;50.392;7.482;2022-11-20T08:32:49;37.73;;;24.50;;
4980;SDS011;2507;50.392;7.482;2022-11-20T08:35:14;35.47;;;21.77;;
4980;SDS011;2507;50.392;7.482;2022-11-20T08:37:40;38.27;;;23.10;;
4980;SDS011;2507;50.392;7.482;2022-11-20T08:40:07;38.73;;;24.57;;
4980;SDS011;2507;50.392;7.482;2022-11-20T08:42:35;34.80;;;23.40;;
4980;SDS011;2507;50.392;7.482;2022-11-20T08:45:00;35.20;;;23.17;;
4980;SDS011;2507;50.392;7.482;2022-11-20T08:47:25;33.87;;;22.73;;
4980;SDS011;2507;50.392;7.482;2022-11-20T08:49:51;36.00;;;23.90;;
4980;SDS011;2507;50.392;7.482;2022-11-20T08:52:16;37.40;;;22.40;;
4980;SDS011;2507;50.392;7.482;2022-11-20T08:54:41;40.23;;;25.37;;
4980;SDS011;2507;50.392;7.482;2022-11-20T08:57:07;36.90;;;24.20;;
4980;SDS011;2507;50.392;7.482;2022-11-20T08:59:33;38.07;;;23.87;;
4980;SDS011;2507;50.392;7.482;2022-11-20T09:01:58;36.47;;;22.83;;
4980;SDS011;2507;50.392;7.482;2022-11-20T09:04:23;31.17;;;22.40;;
4980;SDS011;2507;50.392;7.482;2022-11-20T09:06:49;36.43;;;23.40;;
4980;SDS011;2507;50.392;7.482;2022-11-20T09:09:16;48.23;;;30.47;;
4980;SDS011;2507;50.392;7.482;2022-11-20T09:11:43;37.17;;;24.90;;
4980;SDS011;2507;50.392;7.482;2022-11-20T09:14:08;36.23;;;24.93;;
4980;SDS011;2507;50.392;7.482;2022-11-20T09:16:33;37.83;;;24.57;;
4980;SDS011;2507;50.392;7.482;2022-11-20T09:18:59;40.40;;;24.93;;
4980;SDS011;2507;50.392;7.482;2022-11-20T09:21:24;61.07;;;39.40;;
4980;SDS011;2507;50.392;7.482;2022-11-20T09:23:49;35.50;;;24.50;;
4980;SDS011;2507;50.392;7.482;2022-11-20T09:26:15;38.47;;;25.67;;
4980;SDS011;2507;50.392;7.482;2022-11-20T09:28:40;41.00;;;26.20;;
4980;SDS011;2507;50.392;7.482;2022-11-20T09:31:11;47.17;;;27.73;;
4980;SDS011;2507;50.392;7.482;2022-11-20T09:33:44;37.83;;;25.53;;
4980;SDS011;2507;50.392;7.482;2022-11-20T09:36:09;35.03;;;23.73;;
4980;SDS011;2507;50.392;7.482;2022-11-20T09:38:35;37.90;;;24.30;;
4980;SDS011;2507;50.392;7.482;2022-11-20T09:41:04;40.00;;;24.70;;
4980;SDS011;2507;50.392;7.482;2022-11-20T09:43:40;37.87;;;24.17;;
4980;SDS011;2507;50.392;7.482;2022-11-20T09:46:22;36.10;;;23.43;;
4980;SDS011;2507;50.392;7.482;2022-11-20T09:49:15;35.00;;;23.40;;
4980;SDS011;2507;50.392;7.482;2022-11-20T09:54:58;39.20;;;24.67;;
4980;SDS011;2507;50.392;7.482;2022-11-20T09:57:32;37.87;;;23.87;;
4980;SDS011;2507;50.392;7.482;2022-11-20T10:00:02;40.40;;;26.13;;
4980;SDS011;2507;50.392;7.482;2022-11-20T10:06:05;33.70;;;22.90;;
4980;SDS011;2507;50.392;7.482;2022-11-20T10:13:51;36.33;;;23.57;;
4980;SDS011;2507;50.392;7.482;2022-11-20T10:25:43;34.80;;;23.03;;
4980;SDS011;2507;50.392;7.482;2022-11-20T10:28:28;31.87;;;21.60;;
4980;SDS011;2507;50.392;7.482;2022-11-20T10:31:03;35.73;;;23.27;;
4980;SDS011;2507;50.392;7.482;2022-11-20T10:33:35;33.63;;;22.50;;
4980;SDS011;2507;50.392;7.482;2022-11-20T10:41:41;32.33;;;21.70;;
4980;SDS011;2507;50.392;7.482;2022-11-20T10:44:12;35.40;;;23.50;;
4980;SDS011;2507;50.392;7.482;2022-11-20T10:47:00;32.60;;;21.40;;
4980;SDS011;2507;50.392;7.482;2022-11-20T10:49:26;30.73;;;20.87;;
4980;SDS011;2507;50.392;7.482;2022-11-20T10:51:56;29.50;;;21.00;;
4980;SDS011;2507;50.392;7.482;2022-11-20T10:56:56;31.20;;;21.17;;
4980;SDS011;2507;50.392;7.482;2022-11-20T11:01:58;34.50;;;22.23;;
4980;SDS011;2507;50.392;7.482;2022-11-20T11:04:35;30.10;;;21.13;;
4980;SDS011;2507;50.392;7.482;2022-11-20T11:07:25;29.83;;;20.73;;
4980;SDS011;2507;50.392;7.482;2022-11-20T11:09:56;33.80;;;21.90;;
4980;SDS011;2507;50.392;7.482;2022-11-20T11:12:23;30.67;;;20.27;;
4980;SDS011;2507;50.392;7.482;2022-11-20T11:14:51;29.73;;;19.83;;
4980;SDS011;2507;50.392;7.482;2022-11-20T11:17:31;26.50;;;19.97;;
4980;SDS011;2507;50.392;7.482;2022-11-20T11:22:33;26.80;;;18.40;;
4980;SDS011;2507;50.392;7.482;2022-11-20T11:25:07;25.00;;;17.87;;
4980;SDS011;2507;50.392;7.482;2022-11-20T11:27:47;22.20;;;16.03;;
4980;SDS011;2507;50.392;7.482;2022-11-20T11:30:17;24.50;;;17.47;;
4980;SDS011;2507;50.392;7.482;2022-11-20T11:32:44;22.30;;;17.70;;
4980;SDS011;2507;50.392;7.482;2022-11-20T11:35:26;23.53;;;17.23;;
4980;SDS011;2507;50.392;7.482;2022-11-20T11:37:54;20.47;;;15.50;;
4980;SDS011;2507;50.392;7.482;2022-11-20T11:40:32;19.10;;;14.77;;
4980;SDS011;2507;50.392;7.482;2022-11-20T11:43:01;18.93;;;14.80;;
4980;SDS011;2507;50.392;7.482;2022-11-20T11:45:30;16.70;;;13.47;;
4980;SDS011;2507;50.392;7.482;2022-11-20T11:47:56;18.73;;;14.30;;
4980;SDS011;2507;50.392;7.482;2022-11-20T11:50:25;17.83;;;14.10;;
4980;SDS011;2507;50.392;7.482;2022-11-20T11:53:05;15.87;;;12.57;;
4980;SDS011;2507;50.392;7.482;2022-11-20T11:55:46;18.23;;;13.80;;
4980;SDS011;2507;50.392;7.482;2022-11-20T12:06:29;21.57;;;15.70;;
4980;SDS011;2507;50.392;7.482;2022-11-20T12:09:01;18.93;;;14.27;;
4980;SDS011;2507;50.392;7.482;2022-11-20T12:11:30;21.77;;;17.30;;
4980;SDS011;2507;50.392;7.482;2022-11-20T12:13:58;21.03;;;16.50;;
4980;SDS011;2507;50.392;7.482;2022-11-20T12:16:33;19.30;;;15.30;;
4980;SDS011;2507;50.392;7.482;2022-11-20T12:19:01;19.70;;;14.63;;
4980;SDS011;2507;50.392;7.482;2022-11-20T12:24:14;20.20;;;14.57;;
4980;SDS011;2507;50.392;7.482;2022-11-20T12:47:31;19.93;;;15.03;;
4980;SDS011;2507;50.392;7.482;2022-11-20T12:50:13;18.70;;;13.67;;
4980;SDS011;2507;50.392;7.482;2022-11-20T12:55:42;19.90;;;14.57;;
4980;SDS011;2507;50.392;7.482;2022-11-20T12:58:22;18.60;;;14.10;;
4980;SDS011;2507;50.392;7.482;2022-11-20T13:01:21;17.60;;;13.30;;
4980;SDS011;2507;50.392;7.482;2022-11-20T13:04:15;16.30;;;12.60;;
4980;SDS011;2507;50.392;7.482;2022-11-20T13:06:42;21.00;;;13.47;;
4980;SDS011;2507;50.392;7.482;2022-11-20T13:09:10;16.93;;;13.47;;
4980;SDS011;2507;50.392;7.482;2022-11-20T13:14:12;17.37;;;13.37;;
4980;SDS011;2507;50.392;7.482;2022-11-20T13:16:48;15.90;;;13.90;;
4980;SDS011;2507;50.392;7.482;2022-11-20T13:19:18;22.77;;;18.13;;
4980;SDS011;2507;50.392;7.482;2022-11-20T13:21:45;26.40;;;19.80;;
4980;SDS011;2507;50.392;7.482;2022-11-20T13:29:33;17.67;;;13.43;;
4980;SDS011;2507;50.392;7.482;2022-11-20T13:34:29;18.57;;;14.73;;
4980;SDS011;2507;50.392;7.482;2022-11-20T13:36:55;21.00;;;15.70;;
4980;SDS011;2507;50.392;7.482;2022-11-20T13:40:04;16.80;;;13.27;;
4980;SDS011;2507;50.392;7.482;2022-11-20T13:44:44;19.50;;;12.50;;
4980;SDS011;2507;50.392;7.482;2022-11-20T13:47:19;14.53;;;11.70;;
4980;SDS011;2507;50.392;7.482;2022-11-20T13:49:46;17.60;;;12.47;;
4980;SDS011;2507;50.392;7.482;2022-11-20T13:55:02;12.13;;;10.83;;
4980;SDS011;2507;50.392;7.482;2022-11-20T14:00:25;12.40;;;11.00;;
4980;SDS011;2507;50.392;7.482;2022-11-20T14:05:31;13.40;;;11.47;;
4980;SDS011;2507;50.392;7.482;2022-11-20T14:08:02;13.00;;;11.17;;
4980;SDS011;2507;50.392;7.482;2022-11-20T14:10:29;22.03;;;11.53;;
4980;SDS011;2507;50.392;7.482;2022-11-20T14:12:55;22.07;;;15.23;;
4980;SDS011;2507;50.392;7.482;2022-11-20T14:15:24;18.63;;;13.07;;
4980;SDS011;2507;50.392;7.482;2022-11-20T14:17:51;18.03;;;13.20;;
4980;SDS011;2507;50.392;7.482;2022-11-20T14:20:17;17.20;;;13.33;;
4980;SDS011;2507;50.392;7.482;2022-11-20T14:22:48;12.90;;;11.10;;
4980;SDS011;2507;50.392;7.482;2022-11-20T14:27:41;13.63;;;11.83;;
4980;SDS011;2507;50.392;7.482;2022-11-20T14:30:15;13.83;;;11.60;;
4980;SDS011;2507;50.392;7.482;2022-11-20T14:32:43;16.30;;;13.30;;
4980;SDS011;2507;50.392;7.482;2022-11-20T14:35:13;15.00;;;12.50;;
4980;SDS011;2507;50.392;7.482;2022-11-20T14:37:44;20.10;;;13.83;;
4980;SDS011;2507;50.392;7.482;2022-11-20T14:40:23;15.80;;;12.10;;
4980;SDS011;2507;50.392;7.482;2022-11-20T14:42:52;15.67;;;12.30;;
4980;SDS011;2507;50.392;7.482;2022-11-20T14:45:17;14.07;;;11.73;;
4980;SDS011;2507;50.392;7.482;2022-11-20T14:47:44;11.90;;;10.60;;
4980;SDS011;2507;50.392;7.482;2022-11-20T14:50:14;15.00;;;11.93;;
4980;SDS011;2507;50.392;7.482;2022-11-20T14:52:54;15.30;;;13.17;;
4980;SDS011;2507;50.392;7.482;2022-11-20T14:55:25;13.23;;;11.63;;
4980;SDS011;2507;50.392;7.482;2022-11-20T14:58:05;15.40;;;11.67;;
4980;SDS011;2507;50.392;7.482;2022-11-20T15:00:52;13.37;;;11.97;;
4980;SDS011;2507;50.392;7.482;2022-11-20T15:03:19;14.50;;;12.70;;
4980;SDS011;2507;50.392;7.482;2022-11-20T15:05:48;13.87;;;11.33;;
4980;SDS011;2507;50.392;7.482;2022-11-20T15:08:15;14.20;;;12.30;;
4980;SDS011;2507;50.392;7.482;2022-11-20T15:10:59;15.40;;;12.50;;
4980;SDS011;2507;50.392;7.482;2022-11-20T15:15:52;17.80;;;13.93;;
4980;SDS011;2507;50.392;7.482;2022-11-20T15:18:21;16.27;;;13.37;;
4980;SDS011;2507;50.392;7.482;2022-11-20T15:20:55;17.73;;;14.97;;
4980;SDS011;2507;50.392;7.482;2022-11-20T15:23:22;19.70;;;15.77;;
4980;SDS011;2507;50.392;7.482;2022-11-20T15:25:48;19.80;;;15.77;;
4980;SDS011;2507;50.392;7.482;2022-11-20T15:28:16;20.30;;;16.67;;
4980;SDS011;2507;50.392;7.482;2022-11-20T15:30:42;19.60;;;15.70;;
4980;SDS011;2507;50.392;7.482;2022-11-20T15:33:08;22.87;;;15.77;;
4980;SDS011;2507;50.392;7.482;2022-11-20T15:35:35;15.93;;;13.30;;
4980;SDS011;2507;50.392;7.482;2022-11-20T15:38:00;19.97;;;14.97;;
4980;SDS011;2507;50.392;7.482;2022-11-20T15:40:25;18.47;;;15.33;;
4980;SDS011;2507;50.392;7.482;2022-11-20T15:42:50;18.93;;;15.40;;
4980;SDS011;2507;50.392;7.482;2022-11-20T15:45:43;20.67;;;15.90;;
4980;SDS011;2507;50.392;7.482;2022-11-20T15:48:14;27.20;;;19.07;;
4980;SDS011;2507;50.392;7.482;2022-11-20T15:50:58;23.57;;;17.57;;
4980;SDS011;2507;50.392;7.482;2022-11-20T15:53:28;24.00;;;17.43;;
4980;SDS011;2507;50.392;7.482;2022-11-20T15:55:54;21.43;;;17.60;;
4980;SDS011;2507;50.392;7.482;2022-11-20T15:58:19;21.70;;;16.97;;
4980;SDS011;2507;50.392;7.482;2022-11-20T16:00:44;22.30;;;16.67;;
4980;SDS011;2507;50.392;7.482;2022-11-20T16:03:13;27.50;;;20.00;;
4980;SDS011;2507;50.392;7.482;2022-11-20T16:05:39;46.37;;;34.47;;
4980;SDS011;2507;50.392;7.482;2022-11-20T16:08:05;31.50;;;24.13;;
4980;SDS011;2507;50.392;7.482;2022-11-20T16:10:30;25.50;;;20.27;;
4980;SDS011;2507;50.392;7.482;2022-11-20T16:12:55;29.53;;;21.37;;
4980;SDS011;2507;50.392;7.482;2022-11-20T16:15:39;22.87;;;19.00;;
4980;SDS011;2507;50.392;7.482;2022-11-20T16:18:12;23.27;;;19.10;;
4980;SDS011;2507;50.392;7.482;2022-11-20T16:20:39;28.43;;;21.80;;
4980;SDS011;2507;50.392;7.482;2022-11-20T16:23:05;27.30;;;20.67;;
4980;SDS011;2507;50.392;7.482;2022-11-20T16:25:31;24.80;;;20.83;;
4980;SDS011;2507;50.392;7.482;2022-11-20T16:27:56;23.40;;;19.00;;
4980;SDS011;2507;50.392;7.482;2022-11-20T16:30:22;27.93;;;22.80;;
4980;SDS011;2507;50.392;7.482;2022-11-20T16:32:47;31.03;;;20.60;;
4980;SDS011;2507;50.392;7.482;2022-11-20T16:35:13;31.70;;;24.20;;
4980;SDS011;2507;50.392;7.482;2022-11-20T16:37:39;31.50;;;23.00;;